Time;durP1;ratioP1;P1;durP2;ratioP2;P2;SDS_P1;SDS_P2;PMS_P1;PMS_P2;Temp;Humidity;BMP_temperature;BMP_pressure;BME280_temperature;BME280_humidity;BME280_pressure;Samples;Min_cycle;Max_cycle;Signal;HPM_P1;HPM_P2
2022/08/30 00:01:56;;;;;;;0.90;0.77;;;18.40;99.90;;;;;;5008863;28;20528;-78
2022/08/30 00:04:23;;;;;;;0.50;0.30;;;18.40;99.90;;;;;;5008704;28;20593;-78
2022/08/30 00:06:50;;;;;;;0.50;0.30;;;18.30;99.90;;;;;;5053073;28;20428;-78
2022/08/30 00:09:17;;;;;;;0.50;0.40;;;18.30;99.90;;;;;;5071579;28;20937;-78
2022/08/30 00:11:43;;;;;;;0.50;0.30;;;18.20;99.90;;;;;;5071537;28;21032;-79
2022/08/30 00:14:10;;;;;;;0.50;0.30;;;18.20;99.90;;;;;;5070936;28;20467;-77
2022/08/30 00:16:38;;;;;;;0.50;0.40;;;18.20;99.90;;;;;;5070858;28;20496;-78
2022/08/30 00:19:05;;;;;;;0.50;0.40;;;18.10;99.90;;;;;;5071629;28;20531;-77
2022/08/30 00:21:32;;;;;;;0.50;0.40;;;18.10;99.90;;;;;;5071425;28;20925;-77
2022/08/30 00:23:59;;;;;;;0.50;0.40;;;18.00;99.90;;;;;;5070836;28;20455;-78
2022/08/30 00:26:26;;;;;;;0.50;0.30;;;18.00;99.90;;;;;;5071118;28;20432;-78
2022/08/30 00:28:53;;;;;;;0.50;0.30;;;18.00;99.90;;;;;;5071410;28;20444;-77
2022/08/30 00:31:20;;;;;;;0.50;0.30;;;17.90;99.90;;;;;;5071456;28;20445;-76
2022/08/30 00:33:48;;;;;;;0.50;0.30;;;17.90;99.90;;;;;;5071132;28;20452;-77
2022/08/30 00:36:15;;;;;;;0.50;0.30;;;17.90;99.90;;;;;;5070874;28;20498;-78
2022/08/30 00:38:42;;;;;;;0.50;0.40;;;17.90;99.90;;;;;;5070951;28;20493;-77
2022/08/30 00:41:09;;;;;;;0.50;0.40;;;18.00;99.90;;;;;;5071690;28;20498;-78
2022/08/30 00:43:36;;;;;;;0.50;0.40;;;18.10;99.90;;;;;;5071256;28;20992;-78
2022/08/30 00:46:06;;;;;;;0.50;0.30;;;18.10;99.90;;;;;;5071123;28;20459;-77
2022/08/30 00:48:35;;;;;;;0.50;0.30;;;18.00;99.90;;;;;;5071259;28;20444;-77
2022/08/30 00:51:07;;;;;;;0.50;0.40;;;17.90;99.90;;;;;;5070921;28;20938;-77
2022/08/30 00:53:37;;;;;;;0.50;0.30;;;17.90;99.90;;;;;;5070967;28;20465;-76
2022/08/30 00:56:05;;;;;;;0.50;0.33;;;17.80;99.90;;;;;;5070827;28;20954;-78
2022/08/30 00:58:36;;;;;;;0.50;0.40;;;17.70;99.90;;;;;;5071156;28;20925;-77
2022/08/30 01:01:05;;;;;;;0.50;0.30;;;17.70;99.90;;;;;;5070593;28;20446;-78
2022/08/30 01:03:33;;;;;;;0.50;0.40;;;17.70;99.90;;;;;;5070681;28;20460;-78
2022/08/30 01:06:01;;;;;;;0.50;0.30;;;17.60;99.90;;;;;;5070964;28;20437;-78
2022/08/30 01:08:29;;;;;;;0.50;0.30;;;17.60;99.90;;;;;;5071241;28;20448;-78
2022/08/30 01:10:57;;;;;;;0.50;0.30;;;17.60;99.90;;;;;;5070527;28;20925;-78
2022/08/30 01:13:26;;;;;;;0.50;0.40;;;17.60;99.90;;;;;;5071062;28;20456;-78
2022/08/30 01:15:54;;;;;;;0.90;0.90;;;17.60;99.90;;;;;;5070192;28;20468;-75
2022/08/30 01:18:22;;;;;;;0.50;0.40;;;17.60;99.90;;;;;;5070709;28;20456;-76
2022/08/30 01:20:57;;;;;;;0.50;0.40;;;17.70;99.90;;;;;;5070850;28;20485;-78
2022/08/30 01:23:26;;;;;;;0.50;0.30;;;17.70;99.90;;;;;;5070728;28;20995;-77
2022/08/30 01:25:54;;;;;;;0.50;0.30;;;17.60;99.90;;;;;;5070422;28;20440;-75
2022/08/30 01:28:24;;;;;;;0.50;0.30;;;17.60;99.90;;;;;;5070873;28;20440;-77
2022/08/30 01:30:51;;;;;;;0.50;0.40;;;17.60;99.90;;;;;;5070474;28;20905;-78
2022/08/30 01:33:19;;;;;;;0.60;0.60;;;17.50;99.90;;;;;;5070283;28;20490;-77
2022/08/30 01:35:52;;;;;;;0.50;0.40;;;17.50;99.90;;;;;;5070121;28;20475;-78
2022/08/30 01:38:21;;;;;;;0.50;0.40;;;17.50;99.90;;;;;;5070705;28;20486;-78
2022/08/30 01:40:50;;;;;;;0.50;0.30;;;17.70;99.90;;;;;;5073127;28;20465;-78
2022/08/30 01:43:18;;;;;;;0.50;0.30;;;17.80;99.90;;;;;;5074553;28;20448;-79
2022/08/30 01:45:45;;;;;;;0.50;0.30;;;17.80;99.90;;;;;;5074109;28;20442;-78
2022/08/30 01:48:12;;;;;;;0.50;0.30;;;17.80;99.90;;;;;;5073714;28;20448;-78
2022/08/30 01:50:40;;;;;;;0.50;0.30;;;17.80;99.90;;;;;;5074403;28;20439;-78
2022/08/30 01:53:08;;;;;;;0.50;0.30;;;17.90;99.90;;;;;;5073849;28;20843;-78
2022/08/30 01:55:36;;;;;;;0.50;0.30;;;18.00;99.90;;;;;;5073986;28;20813;-78
2022/08/30 01:58:04;;;;;;;0.50;0.33;;;17.90;99.90;;;;;;5073854;28;20535;-77
2022/08/30 02:00:31;;;;;;;0.50;0.30;;;17.90;99.90;;;;;;5073542;28;20439;-78
2022/08/30 02:02:58;;;;;;;0.50;0.40;;;17.90;99.90;;;;;;5073792;28;20440;-77
2022/08/30 02:05:25;;;;;;;0.50;0.40;;;17.90;99.90;;;;;;5073866;28;20468;-78
2022/08/30 02:07:52;;;;;;;0.50;0.37;;;17.90;99.90;;;;;;5073875;28;20444;-77
2022/08/30 02:10:19;;;;;;;0.50;0.30;;;17.80;99.90;;;;;;5073738;28;20447;-78
2022/08/30 02:12:47;;;;;;;0.50;0.30;;;17.80;99.90;;;;;;5073801;28;20451;-76
2022/08/30 02:15:15;;;;;;;0.50;0.40;;;17.80;99.90;;;;;;5073216;28;20435;-78
2022/08/30 02:17:42;;;;;;;0.50;0.30;;;17.80;99.90;;;;;;5073606;28;20476;-78
2022/08/30 02:20:10;;;;;;;0.50;0.30;;;17.80;99.90;;;;;;5073920;28;20436;-77
2022/08/30 02:22:37;;;;;;;0.50;0.30;;;17.80;99.90;;;;;;5073246;28;20438;-77
2022/08/30 02:25:05;;;;;;;0.50;0.30;;;17.80;99.90;;;;;;5073004;28;20468;-79
2022/08/30 02:27:32;;;;;;;0.50;0.30;;;17.80;99.90;;;;;;5073179;28;20926;-79
2022/08/30 02:29:59;;;;;;;0.50;0.40;;;17.80;99.90;;;;;;5073495;28;20436;-74
2022/08/30 02:32:27;;;;;;;0.50;0.40;;;17.80;99.90;;;;;;5073150;28;20803;-78
2022/08/30 02:34:54;;;;;;;0.50;0.40;;;17.70;99.90;;;;;;5072872;28;20472;-75
2022/08/30 02:37:21;;;;;;;0.60;0.60;;;17.70;99.90;;;;;;5072976;28;20468;-78
2022/08/30 02:39:48;;;;;;;0.60;0.50;;;17.70;99.90;;;;;;5073250;28;20440;-77
2022/08/30 02:42:15;;;;;;;0.60;0.50;;;17.70;99.90;;;;;;5073223;28;21155;-78
2022/08/30 02:44:42;;;;;;;0.50;0.40;;;17.70;99.90;;;;;;5072958;28;20810;-77
2022/08/30 02:47:09;;;;;;;0.50;0.30;;;17.70;99.90;;;;;;5072600;28;20447;-78
2022/08/30 02:49:37;;;;;;;1.33;1.23;;;17.70;99.90;;;;;;5072717;28;20436;-78
2022/08/30 02:52:05;;;;;;;0.50;0.40;;;17.60;99.90;;;;;;5072929;28;20444;-77
2022/08/30 02:54:32;;;;;;;0.50;0.30;;;17.60;99.90;;;;;;5072362;28;20471;-77
2022/08/30 02:57:03;;;;;;;0.50;0.37;;;17.50;99.90;;;;;;5074329;28;20832;-78
2022/08/30 02:59:30;;;;;;;0.50;0.30;;;17.50;99.90;;;;;;5072659;28;20471;-77
2022/08/30 03:01:57;;;;;;;0.50;0.30;;;17.50;99.90;;;;;;5072646;28;20518;-78
2022/08/30 03:04:24;;;;;;;0.50;0.40;;;17.50;99.90;;;;;;5072454;28;20460;-78
2022/08/30 03:06:52;;;;;;;0.50;0.30;;;17.50;99.90;;;;;;5072715;28;20436;-77
2022/08/30 03:09:19;;;;;;;0.50;0.40;;;17.50;99.90;;;;;;5072680;28;20574;-79
2022/08/30 03:11:46;;;;;;;0.50;0.40;;;17.50;99.90;;;;;;5072596;28;20547;-77
2022/08/30 03:14:13;;;;;;;0.93;0.93;;;17.40;99.90;;;;;;5071781;28;20909;-77
2022/08/30 03:16:39;;;;;;;0.50;0.30;;;17.40;99.90;;;;;;5072694;28;20484;-78
2022/08/30 03:19:06;;;;;;;0.50;0.40;;;17.30;99.90;;;;;;5072620;28;20444;-78
2022/08/30 03:21:33;;;;;;;0.50;0.30;;;17.30;99.90;;;;;;5072385;28;20444;-78
2022/08/30 03:24:01;;;;;;;0.50;0.30;;;17.30;99.90;;;;;;5072165;28;20467;-79
2022/08/30 03:26:28;;;;;;;0.50;0.40;;;17.30;99.90;;;;;;5072276;28;20436;-79
2022/08/30 03:28:55;;;;;;;0.50;0.37;;;17.20;99.90;;;;;;5072728;28;20812;-78
2022/08/30 03:31:21;;;;;;;0.50;0.33;;;17.20;99.90;;;;;;5073315;28;20436;-77
2022/08/30 03:33:48;;;;;;;0.50;0.40;;;17.20;99.90;;;;;;5072938;28;20463;-78
2022/08/30 03:36:15;;;;;;;0.50;0.40;;;17.10;99.90;;;;;;5072985;28;20555;-76
2022/08/30 03:38:42;;;;;;;0.50;0.30;;;17.10;99.90;;;;;;5072893;28;21097;-77
2022/08/30 03:41:11;;;;;;;0.50;0.40;;;17.20;99.90;;;;;;5072735;28;20535;-76
2022/08/30 03:43:38;;;;;;;0.50;0.30;;;17.20;99.90;;;;;;5073335;28;20456;-78
2022/08/30 03:46:06;;;;;;;0.50;0.37;;;17.20;99.90;;;;;;5072937;28;20449;-76
2022/08/30 03:48:33;;;;;;;0.50;0.33;;;17.20;99.90;;;;;;5072388;28;20441;-77
2022/08/30 03:51:00;;;;;;;0.50;0.30;;;17.20;99.90;;;;;;5073181;28;20539;-76
2022/08/30 03:53:27;;;;;;;0.50;0.30;;;17.30;99.90;;;;;;5073298;28;20543;-77
2022/08/30 03:55:54;;;;;;;0.50;0.30;;;17.30;99.90;;;;;;5072945;28;20443;-76
2022/08/30 03:58:22;;;;;;;0.50;0.40;;;17.30;99.90;;;;;;5073057;28;20476;-76
2022/08/30 04:00:49;;;;;;;3.23;1.57;;;17.40;99.90;;;;;;5073251;28;20531;-77
2022/08/30 04:03:17;;;;;;;0.50;0.40;;;17.40;99.90;;;;;;5072179;28;20464;-76
2022/08/30 04:05:44;;;;;;;0.50;0.30;;;17.30;99.90;;;;;;5072097;28;20455;-76
2022/08/30 04:08:11;;;;;;;0.50;0.30;;;17.30;99.90;;;;;;5072321;28;20468;-78
2022/08/30 04:10:37;;;;;;;1.13;1.03;;;17.20;99.90;;;;;;5072634;28;20527;-76
2022/08/30 04:13:04;;;;;;;0.70;0.60;;;17.20;99.90;;;;;;5072521;28;20436;-76
2022/08/30 04:15:32;;;;;;;1.70;1.60;;;17.20;99.90;;;;;;5071531;28;20436;-77
2022/08/30 04:17:59;;;;;;;0.60;0.50;;;17.10;99.90;;;;;;5065518;28;20479;-77
2022/08/30 04:20:26;;;;;;;1.17;0.87;;;17.10;99.90;;;;;;5059019;28;20524;-78
2022/08/30 04:22:53;;;;;;;0.50;0.40;;;17.00;99.90;;;;;;5054587;28;20953;-77
2022/08/30 04:25:20;;;;;;;0.50;0.40;;;16.90;99.90;;;;;;5054077;28;20996;-78
2022/08/30 04:27:47;;;;;;;0.60;0.60;;;16.90;99.90;;;;;;5053342;28;20437;-78
2022/08/30 04:30:16;;;;;;;0.50;0.40;;;16.90;99.90;;;;;;5053538;28;20532;-78
2022/08/30 04:32:45;;;;;;;0.50;0.40;;;16.80;99.90;;;;;;5053363;28;20445;-78
2022/08/30 04:35:12;;;;;;;0.50;0.30;;;16.70;99.90;;;;;;5052094;28;20544;-77
2022/08/30 04:37:39;;;;;;;0.50;0.40;;;16.70;99.90;;;;;;5052432;28;20512;-76
2022/08/30 04:40:08;;;;;;;0.50;0.40;;;16.70;99.90;;;;;;5053103;28;20437;-76
2022/08/30 04:42:35;;;;;;;0.50;0.40;;;16.60;99.90;;;;;;5051486;28;20524;-78
2022/08/30 04:45:05;;;;;;;0.50;0.37;;;16.50;99.90;;;;;;5051382;28;20553;-78
2022/08/30 04:47:31;;;;;;;0.50;0.40;;;16.40;99.90;;;;;;5052073;28;20529;-78
2022/08/30 04:50:00;;;;;;;0.50;0.40;;;16.40;99.90;;;;;;5052268;28;20948;-78
2022/08/30 04:52:28;;;;;;;0.50;0.40;;;16.40;99.90;;;;;;5051936;28;20441;-78
2022/08/30 04:54:55;;;;;;;0.50;0.30;;;16.40;99.90;;;;;;5055529;28;20502;-76
2022/08/30 04:57:22;;;;;;;0.50;0.30;;;16.40;99.90;;;;;;5062177;28;20468;-77
2022/08/30 04:59:49;;;;;;;0.50;0.40;;;16.40;99.90;;;;;;5071916;28;20452;-78
2022/08/30 05:02:17;;;;;;;0.50;0.37;;;16.50;99.90;;;;;;5071566;28;20445;-78
2022/08/30 05:07:26;;;;;;;0.50;0.40;;;16.50;99.90;;;;;;5070497;28;20421;-77
2022/08/30 05:09:53;;;;;;;0.60;0.60;;;16.50;99.90;;;;;;5073661;28;20479;-78
2022/08/30 05:12:20;;;;;;;0.50;0.30;;;16.50;99.90;;;;;;5071160;28;20436;-78
2022/08/30 05:14:47;;;;;;;0.50;0.30;;;16.60;99.90;;;;;;5071528;28;20458;-79
2022/08/30 05:17:14;;;;;;;0.50;0.40;;;16.60;99.90;;;;;;5075181;28;20464;-78
2022/08/30 05:19:40;;;;;;;0.60;0.50;;;16.70;99.90;;;;;;5075242;28;20607;-78
2022/08/30 05:22:07;;;;;;;0.60;0.60;;;16.70;99.90;;;;;;5074827;28;20440;-79
2022/08/30 05:24:36;;;;;;;0.50;0.40;;;16.70;99.90;;;;;;5074666;28;20551;-78
2022/08/30 05:27:03;;;;;;;0.50;0.30;;;16.70;99.90;;;;;;5075229;28;20436;-78
2022/08/30 05:29:31;;;;;;;0.60;0.50;;;16.70;99.90;;;;;;5075121;28;20507;-79
2022/08/30 05:31:58;;;;;;;0.50;0.40;;;16.70;99.90;;;;;;5075069;28;20460;-77
2022/08/30 05:34:25;;;;;;;0.60;0.50;;;16.70;99.90;;;;;;5074339;28;20543;-79
2022/08/30 05:36:52;;;;;;;0.70;0.70;;;16.70;99.90;;;;;;5074651;28;20434;-78
2022/08/30 05:39:19;;;;;;;0.50;0.40;;;16.70;99.90;;;;;;5074863;28;20497;-79
2022/08/30 05:41:47;;;;;;;0.50;0.30;;;16.70;99.90;;;;;;5075214;28;20432;-80
2022/08/30 05:44:14;;;;;;;0.50;0.40;;;16.80;99.90;;;;;;5074972;28;20981;-79
2022/08/30 05:46:44;;;;;;;0.50;0.40;;;17.00;99.90;;;;;;5074994;28;20503;-79
2022/08/30 05:49:11;;;;;;;0.50;0.33;;;17.10;99.90;;;;;;5074080;28;20479;-78
2022/08/30 05:51:38;;;;;;;2.27;1.17;;;17.20;99.90;;;;;;5073735;28;20505;-77
2022/08/30 05:54:06;;;;;;;0.50;0.40;;;17.20;99.90;;;;;;5073539;28;20456;-78
2022/08/30 05:56:35;;;;;;;0.50;0.40;;;17.20;99.90;;;;;;5073267;28;20441;-77
2022/08/30 05:59:05;;;;;;;0.50;0.40;;;17.30;99.90;;;;;;5073810;28;20482;-79
2022/08/30 06:01:34;;;;;;;0.50;0.30;;;17.50;99.90;;;;;;5073385;28;20444;-78
2022/08/30 06:04:03;;;;;;;0.50;0.30;;;17.70;99.90;;;;;;5073068;28;20495;-78
2022/08/30 06:06:31;;;;;;;0.50;0.30;;;17.70;99.90;;;;;;5071704;28;20436;-78
2022/08/30 06:08:58;;;;;;;0.50;0.30;;;17.70;99.90;;;;;;5073413;28;20439;-74
2022/08/30 06:11:26;;;;;;;0.50;0.30;;;18.60;99.90;;;;;;5073532;28;20447;-77
2022/08/30 06:13:54;;;;;;;1.90;1.80;;;19.50;99.90;;;;;;5073258;28;20798;-77
2022/08/30 06:16:25;;;;;;;0.50;0.40;;;20.20;99.90;;;;;;5072546;28;20925;-78
2022/08/30 06:18:52;;;;;;;1.13;1.03;;;20.90;99.90;;;;;;5073697;28;20484;-78
2022/08/30 06:21:20;;;;;;;0.87;0.87;;;21.60;99.90;;;;;;5073339;28;20812;-78
2022/08/30 06:23:47;;;;;;;0.50;0.30;;;22.40;99.90;;;;;;5073452;28;20535;-78
2022/08/30 06:26:14;;;;;;;0.70;0.70;;;23.20;99.90;;;;;;5072758;28;20444;-78
2022/08/30 06:28:41;;;;;;;0.50;0.30;;;23.90;99.90;;;;;;5073120;28;20428;-77
2022/08/30 06:31:09;;;;;;;0.50;0.30;;;24.40;99.90;;;;;;5073007;28;20440;-78
2022/08/30 06:33:37;;;;;;;0.50;0.30;;;24.50;99.90;;;;;;5072760;28;20556;-78
2022/08/30 06:36:05;;;;;;;0.50;0.30;;;24.40;99.90;;;;;;5072893;28;20436;-78
2022/08/30 06:38:32;;;;;;;0.50;0.40;;;24.70;99.90;;;;;;5072992;28;20486;-78
2022/08/30 06:40:59;;;;;;;0.63;0.63;;;25.20;99.90;;;;;;5072847;28;20964;-78
2022/08/30 06:43:26;;;;;;;0.70;0.53;;;24.70;99.90;;;;;;5072278;28;20989;-78
2022/08/30 06:45:54;;;;;;;0.60;0.60;;;24.20;99.90;;;;;;5072142;28;20440;-78
2022/08/30 06:48:21;;;;;;;0.60;0.60;;;23.40;99.90;;;;;;5072532;28;20440;-77
2022/08/30 06:50:54;;;;;;;0.50;0.30;;;23.70;99.90;;;;;;5072796;28;20444;-77
2022/08/30 06:53:22;;;;;;;0.50;0.30;;;24.20;99.90;;;;;;5072533;28;20460;-78
2022/08/30 06:55:56;;;;;;;0.60;0.50;;;24.80;99.90;;;;;;5072394;28;20773;-77
2022/08/30 06:58:23;;;;;;;0.50;0.40;;;25.60;99.90;;;;;;5072533;28;20459;-78
2022/08/30 07:00:50;;;;;;;0.70;0.60;;;26.40;99.90;;;;;;5072418;28;20448;-79
2022/08/30 07:03:17;;;;;;;0.50;0.30;;;27.10;99.90;;;;;;5072675;28;20468;-78
2022/08/30 07:05:43;;;;;;;0.50;0.30;;;27.70;95.10;;;;;;5072034;28;20442;-79
2022/08/30 07:08:12;;;;;;;3.27;0.60;;;27.70;93.50;;;;;;5072041;28;20438;-78
2022/08/30 07:10:39;;;;;;;0.97;0.73;;;27.50;92.30;;;;;;5072165;28;20450;-78
2022/08/30 07:13:06;;;;;;;3.07;1.10;;;27.80;92.40;;;;;;5071992;28;20532;-78
2022/08/30 07:15:33;;;;;;;0.50;0.40;;;28.10;91.00;;;;;;5071206;28;20937;-78
2022/08/30 07:20:44;;;;;;;0.87;0.70;;;29.10;84.50;;;;;;5072317;28;20928;-77
2022/08/30 07:23:12;;;;;;;0.50;0.30;;;28.60;83.40;;;;;;5072686;28;20486;-77
2022/08/30 07:25:41;;;;;;;0.50;0.40;;;28.20;84.30;;;;;;5071912;28;20754;-77
2022/08/30 07:28:09;;;;;;;0.50;0.30;;;27.70;86.20;;;;;;5071852;28;20487;-77
2022/08/30 07:30:36;;;;;;;1.77;1.17;;;28.10;86.60;;;;;;5071641;28;20444;-77
2022/08/30 07:33:04;;;;;;;0.70;0.50;;;29.10;84.00;;;;;;5071838;28;20627;-78
2022/08/30 07:35:31;;;;;;;0.50;0.30;;;29.00;80.50;;;;;;5074129;28;20443;-77
2022/08/30 07:37:58;;;;;;;0.60;0.47;;;28.90;81.70;;;;;;5072978;28;20486;-74
2022/08/30 07:40:26;;;;;;;0.50;0.40;;;29.20;80.70;;;;;;5074053;28;20432;-77
2022/08/30 07:42:53;;;;;;;0.50;0.30;;;29.60;79.40;;;;;;5073381;28;20459;-77
2022/08/30 07:45:20;;;;;;;19.07;1.17;;;30.00;77.40;;;;;;5074041;28;20436;-77
2022/08/30 07:47:47;;;;;;;0.50;0.40;;;30.00;75.30;;;;;;5073927;28;20523;-77
2022/08/30 07:50:14;;;;;;;0.50;0.30;;;30.10;75.40;;;;;;5074078;28;20474;-78
2022/08/30 07:52:41;;;;;;;0.50;0.30;;;29.60;76.10;;;;;;5074669;28;20433;-78
2022/08/30 07:55:09;;;;;;;0.50;0.30;;;29.90;75.90;;;;;;5072873;28;20543;-77
2022/08/30 07:57:37;;;;;;;1.77;0.90;;;30.40;74.00;;;;;;5072890;28;20949;-78
2022/08/30 08:00:05;;;;;;;0.50;0.30;;;29.60;74.30;;;;;;5073342;28;20436;-78
2022/08/30 08:02:32;;;;;;;0.50;0.40;;;29.80;76.40;;;;;;5071634;28;20973;-78
2022/08/30 08:04:59;;;;;;;0.50;0.30;;;30.60;76.10;;;;;;5071208;28;20821;-78
2022/08/30 08:07:26;;;;;;;0.50;0.30;;;31.40;75.10;;;;;;5071320;28;20458;-78
2022/08/30 08:09:53;;;;;;;0.50;0.43;;;31.90;71.80;;;;;;5071320;28;20451;-78
2022/08/30 08:12:20;;;;;;;0.50;0.30;;;32.40;67.60;;;;;;5071002;28;20523;-77
2022/08/30 08:14:48;;;;;;;0.80;0.67;;;32.20;67.00;;;;;;5070697;28;20467;-78
2022/08/30 08:17:15;;;;;;;0.50;0.30;;;31.60;67.40;;;;;;5071338;28;20433;-78
2022/08/30 08:19:42;;;;;;;0.60;0.60;;;31.00;67.70;;;;;;5071492;28;20581;-77
2022/08/30 08:22:09;;;;;;;0.50;0.30;;;30.40;69.00;;;;;;5071130;28;20530;-78
2022/08/30 08:24:36;;;;;;;0.50;0.30;;;29.80;71.00;;;;;;5070776;28;20464;-77
2022/08/30 08:27:03;;;;;;;0.50;0.40;;;29.40;72.40;;;;;;5070553;28;20531;-78
2022/08/30 08:29:30;;;;;;;1.80;0.40;;;29.00;73.10;;;;;;5070788;28;20451;-77
2022/08/30 08:31:59;;;;;;;0.50;0.30;;;28.80;74.60;;;;;;5070639;28;20444;-77
2022/08/30 08:34:26;;;;;;;0.50;0.30;;;28.50;77.30;;;;;;5070494;28;20460;-78
2022/08/30 08:36:53;;;;;;;0.50;0.30;;;29.20;76.00;;;;;;5070590;28;20493;-77
2022/08/30 08:39:20;;;;;;;0.50;0.30;;;30.00;74.70;;;;;;5070260;28;20476;-76
2022/08/30 08:41:56;;;;;;;0.80;0.67;;;30.40;72.20;;;;;;5070782;28;20527;-78
2022/08/30 08:44:38;;;;;;;0.80;0.80;;;30.50;71.10;;;;;;5070382;28;20478;-78
2022/08/30 08:47:13;;;;;;;0.50;0.30;;;30.60;72.70;;;;;;5070777;28;20441;-78
2022/08/30 08:49:41;;;;;;;0.50;0.30;;;30.90;70.70;;;;;;5072673;28;20945;-77
2022/08/30 08:55:02;;;;;;;0.50;0.30;;;30.10;72.40;;;;;;5074078;28;20530;-77
2022/08/30 08:57:34;;;;;;;0.50;0.30;;;29.80;74.20;;;;;;5075412;28;20444;-78
2022/08/30 09:00:02;;;;;;;0.60;0.57;;;29.80;73.40;;;;;;5074204;28;20412;-73
2022/08/30 09:02:39;;;;;;;0.50;0.30;;;30.30;73.20;;;;;;5073680;28;20838;-76
2022/08/30 09:05:06;;;;;;;2.60;2.50;;;30.50;70.70;;;;;;5073813;28;21035;-78
2022/08/30 09:07:37;;;;;;;1.23;0.87;;;30.70;72.10;;;;;;5073796;28;20439;-78
2022/08/30 09:10:05;;;;;;;0.50;0.30;;;30.70;70.70;;;;;;5074050;28;20413;-78
2022/08/30 09:12:32;;;;;;;0.60;0.50;;;31.20;69.40;;;;;;5073874;28;20440;-78
2022/08/30 09:15:06;;;;;;;0.90;0.73;;;31.60;67.90;;;;;;5073375;28;20466;-78
2022/08/30 09:17:50;;;;;;;0.50;0.40;;;32.50;66.20;;;;;;5074239;28;20436;-77
2022/08/30 09:20:25;;;;;;;0.50;0.30;;;32.90;64.50;;;;;;5074516;28;20478;-78
2022/08/30 09:22:53;;;;;;;0.50;0.30;;;33.20;63.70;;;;;;5073827;28;20489;-75
2022/08/30 09:25:23;;;;;;;0.50;0.30;;;32.50;63.20;;;;;;5073647;28;20451;-78
2022/08/30 09:27:52;;;;;;;0.50;0.30;;;31.80;65.00;;;;;;5073957;28;20949;-78
2022/08/30 09:30:22;;;;;;;3.17;0.97;;;31.90;65.60;;;;;;5074047;28;20444;-78
2022/08/30 09:32:55;;;;;;;0.83;0.83;;;32.40;64.80;;;;;;5074198;28;20452;-78
2022/08/30 09:35:25;;;;;;;0.50;0.30;;;32.40;64.30;;;;;;5073836;28;20471;-77
2022/08/30 09:37:55;;;;;;;0.50;0.50;;;32.10;64.20;;;;;;5073763;28;20531;-77
2022/08/30 09:40:27;;;;;;;0.50;0.30;;;32.00;64.50;;;;;;5074030;28;20444;-76
2022/08/30 09:43:07;;;;;;;0.50;0.40;;;31.90;64.80;;;;;;5073923;28;20899;-75
2022/08/30 09:45:38;;;;;;;0.50;0.30;;;32.10;65.90;;;;;;5073284;28;20423;-78
2022/08/30 09:48:41;;;;;;;0.50;0.30;;;32.80;64.20;;;;;;5073891;28;20442;-77
2022/08/30 09:51:47;;;;;;;0.50;0.30;;;33.80;62.20;;;;;;5011219;28;20438;-75
2022/08/30 09:54:21;;;;;;;0.50;0.30;;;34.10;60.20;;;;;;4976833;28;21021;-77
2022/08/30 09:56:59;;;;;;;0.50;0.30;;;34.80;58.90;;;;;;5011361;28;21037;-74
2022/08/30 09:59:38;;;;;;;0.50;0.40;;;35.00;59.00;;;;;;5010985;28;20546;-77
2022/08/30 10:02:29;;;;;;;4.37;0.97;;;35.70;57.30;;;;;;5010930;28;20450;-74
2022/08/30 10:05:05;;;;;;;0.50;0.40;;;35.50;55.90;;;;;;5010964;28;20473;-74
2022/08/30 10:07:40;;;;;;;0.50;0.40;;;34.40;57.00;;;;;;5010963;28;20458;-78
2022/08/30 10:10:11;;;;;;;0.50;0.30;;;34.90;57.50;;;;;;5011402;28;20529;-77
2022/08/30 10:12:46;;;;;;;0.50;0.30;;;35.70;57.00;;;;;;5011371;28;20446;-77
2022/08/30 10:15:19;;;;;;;0.47;0.30;;;35.90;55.50;;;;;;5010145;28;20859;-77
2022/08/30 10:17:56;;;;;;;0.50;0.30;;;36.20;56.00;;;;;;5011265;28;20423;-75
2022/08/30 10:20:31;;;;;;;0.40;0.40;;;35.70;54.40;;;;;;5010778;28;20478;-77
2022/08/30 10:23:05;;;;;;;0.50;0.30;;;35.70;55.70;;;;;;5065823;28;20466;-77
2022/08/30 10:25:36;;;;;;;0.43;0.30;;;35.80;55.10;;;;;;5072873;28;20475;-77
2022/08/30 10:28:09;;;;;;;0.60;0.40;;;36.20;54.70;;;;;;5072992;28;20468;-77
2022/08/30 10:30:40;;;;;;;0.40;0.30;;;36.10;53.50;;;;;;5073168;28;20531;-77
2022/08/30 10:33:12;;;;;;;0.50;0.40;;;35.50;53.90;;;;;;5072758;28;20444;-76
2022/08/30 10:35:45;;;;;;;0.50;0.30;;;35.50;55.00;;;;;;5072802;28;20530;-75
2022/08/30 10:38:18;;;;;;;0.50;0.30;;;35.60;54.30;;;;;;5072671;28;20463;-77
2022/08/30 10:43:47;;;;;;;0.40;0.30;;;36.40;53.30;;;;;;5072567;28;20975;-77
2022/08/30 10:46:19;;;;;;;0.50;0.40;;;36.60;52.70;;;;;;5072842;28;20428;-76
2022/08/30 10:48:48;;;;;;;0.40;0.30;;;36.70;52.00;;;;;;5072976;28;20440;-77
2022/08/30 10:51:21;;;;;;;0.40;0.30;;;36.90;52.40;;;;;;5072767;28;20436;-77
2022/08/30 10:53:53;;;;;;;0.40;0.30;;;37.30;52.30;;;;;;5072442;28;20464;-76
2022/08/30 10:56:25;;;;;;;0.50;0.30;;;37.30;51.20;;;;;;5072954;28;20444;-77
2022/08/30 10:58:53;;;;;;;1.23;0.60;;;36.80;51.50;;;;;;5072458;28;20479;-77
2022/08/30 11:01:35;;;;;;;0.40;0.30;;;36.80;51.30;;;;;;5072696;28;20440;-77
2022/08/30 11:04:40;;;;;;;0.60;0.40;;;36.80;51.80;;;;;;5071790;28;20466;-77
2022/08/30 11:07:20;;;;;;;0.50;0.30;;;37.20;50.90;;;;;;5072200;28;20428;-77
2022/08/30 11:10:03;;;;;;;0.47;0.43;;;37.10;50.50;;;;;;5072345;28;20522;-77
2022/08/30 11:12:37;;;;;;;0.60;0.57;;;36.90;50.70;;;;;;5070522;28;20941;-77
2022/08/30 11:15:16;;;;;;;0.40;0.30;;;36.90;50.50;;;;;;5071818;28;20452;-77
2022/08/30 11:17:53;;;;;;;0.50;0.40;;;36.40;50.10;;;;;;5072105;28;20448;-77
2022/08/30 11:20:31;;;;;;;0.50;0.30;;;35.30;51.00;;;;;;5072562;28;20543;-77
2022/08/30 11:23:28;;;;;;;0.50;0.30;;;33.90;52.70;;;;;;5072196;28;20444;-76
2022/08/30 11:25:58;;;;;;;0.60;0.57;;;33.10;53.70;;;;;;5037083;28;20444;-77
2022/08/30 11:28:59;;;;;;;0.50;0.30;;;32.60;54.60;;;;;;5072395;28;20531;-75
2022/08/30 11:31:41;;;;;;;0.50;0.30;;;32.70;55.10;;;;;;5071574;28;20515;-76
2022/08/30 11:34:09;;;;;;;0.50;0.30;;;33.10;55.50;;;;;;5071281;28;20452;-77
2022/08/30 11:37:06;;;;;;;0.50;0.30;;;33.10;55.60;;;;;;5071449;28;20432;-77
2022/08/30 11:39:56;;;;;;;0.93;0.93;;;33.40;54.40;;;;;;5071828;28;21068;-77
2022/08/30 11:42:30;;;;;;;0.73;0.47;;;33.20;54.20;;;;;;5072356;28;20527;-77
2022/08/30 11:45:34;;;;;;;0.50;0.30;;;32.60;54.60;;;;;;5070943;28;20456;-74
2022/08/30 11:48:04;;;;;;;0.50;0.30;;;32.40;54.80;;;;;;5071586;28;20790;-75
2022/08/30 11:50:35;;;;;;;0.50;0.30;;;32.20;55.20;;;;;;5071733;28;20435;-77
2022/08/30 11:53:10;;;;;;;0.50;0.40;;;31.90;56.00;;;;;;5071986;28;20439;-77
2022/08/30 11:55:53;;;;;;;0.50;0.30;;;31.50;55.70;;;;;;5071146;28;20924;-76
2022/08/30 11:58:31;;;;;;;0.50;0.50;;;31.30;56.80;;;;;;5071446;28;20446;-76
2022/08/30 12:01:20;;;;;;;0.50;0.30;;;30.70;56.90;;;;;;5071545;28;20430;-77
2022/08/30 12:03:56;;;;;;;0.50;0.40;;;30.50;57.70;;;;;;5071321;28;20471;-75
2022/08/30 12:06:55;;;;;;;0.50;0.30;;;31.10;57.70;;;;;;5070931;28;20440;-77
2022/08/30 12:10:02;;;;;;;0.50;0.30;;;32.00;57.00;;;;;;5008834;28;20475;-76
2022/08/30 12:13:03;;;;;;;0.50;0.30;;;32.60;55.40;;;;;;5071480;28;20424;-77
2022/08/30 12:15:53;;;;;;;0.50;0.40;;;31.80;55.60;;;;;;5008090;28;20525;-77
2022/08/30 12:18:29;;;;;;;0.60;0.53;;;31.80;56.10;;;;;;5008826;28;20465;-77
2022/08/30 12:21:09;;;;;;;0.50;0.30;;;32.10;54.80;;;;;;5008832;28;20936;-77
2022/08/30 12:23:41;;;;;;;0.57;0.57;;;31.40;55.80;;;;;;5009045;28;20462;-76
2022/08/30 12:26:19;;;;;;;0.50;0.30;;;31.10;56.20;;;;;;5009133;28;20431;-77
2022/08/30 12:28:49;;;;;;;0.50;0.30;;;30.60;56.10;;;;;;5009764;28;20513;-79
2022/08/30 12:31:21;;;;;;;0.50;0.30;;;29.90;57.80;;;;;;5008995;28;21010;-77
2022/08/30 12:33:53;;;;;;;0.50;0.30;;;29.90;58.10;;;;;;5008530;28;20454;-77
2022/08/30 12:36:34;;;;;;;0.50;0.30;;;30.10;58.50;;;;;;5009325;28;20859;-77
2022/08/30 12:39:15;;;;;;;0.50;0.30;;;30.60;58.80;;;;;;5009081;28;20445;-77
2022/08/30 12:41:44;;;;;;;0.50;0.40;;;31.20;58.00;;;;;;5008793;28;20460;-77
2022/08/30 12:44:16;;;;;;;0.50;0.30;;;31.50;55.90;;;;;;5008231;28;20479;-74
2022/08/30 12:46:47;;;;;;;0.50;0.40;;;31.40;55.50;;;;;;5046897;28;20563;-77
2022/08/30 12:49:15;;;;;;;0.50;0.30;;;31.50;55.30;;;;;;5071534;28;20445;-76
2022/08/30 12:51:44;;;;;;;0.50;0.30;;;31.60;56.70;;;;;;5070842;28;20467;-75
2022/08/30 12:54:17;;;;;;;0.50;0.30;;;32.00;54.90;;;;;;5070446;28;20560;-76
2022/08/30 12:56:54;;;;;;;0.50;0.40;;;32.20;55.00;;;;;;5070886;28;20440;-77
2022/08/30 12:59:56;;;;;;;0.50;0.30;;;32.10;54.80;;;;;;5070907;28;20466;-77
2022/08/30 13:02:26;;;;;;;0.50;0.30;;;31.80;55.50;;;;;;5070717;28;20561;-77
2022/08/30 13:04:55;;;;;;;0.50;0.30;;;31.80;55.80;;;;;;5070645;28;20447;-78
2022/08/30 13:07:34;;;;;;;0.50;0.30;;;32.20;55.90;;;;;;5071342;28;20960;-79
2022/08/30 13:10:09;;;;;;;0.50;0.30;;;32.50;54.60;;;;;;5070849;28;20448;-78
2022/08/30 13:12:37;;;;;;;0.50;0.40;;;32.80;54.40;;;;;;5070369;28;20433;-77
2022/08/30 13:15:17;;;;;;;0.50;0.30;;;33.10;54.30;;;;;;5069941;28;20456;-77
2022/08/30 13:17:46;;;;;;;0.50;0.30;;;33.50;53.00;;;;;;5070853;28;20511;-79